Latest Weather Observations for Nullarbor

IDS60801

Issued at 12:32 pm CDT Friday 19 December 2014 (issued every 30 minutes, with the page automatically refreshed every 10 minutes)

About weather observations | Map of weather stations | Latest weather observations for SA | Other Formats
Station Details ID: 018106 Name: NULLARBOR Lat: -31.45 Lon: 130.90 Height: 64.0 m
Data from the previous 72 hours. | See also: Recent months at Nullarbor
Date/Time
CDT
Temp
°C
App
Temp
°C
Dew
Point
Rel
Hum
%
Delta-T
°C
Wind Press
QNH
hPa
Press
MSL
hPa
Rain
since 9 am
mm
Dir
 
Spd
km/h
Gust
km/h
Spd
kts
Gust
kts
19/12:30pm 22.5 19.1 11.3 49 6.2 SE 20 30 11 16 1021.4 1021.2 0.0
19/12:00pm 22.2 19.3 11.0 49 6.2 SE 17 28 9 15 1021.5 1021.3 0.0
19/11:30am 21.8 19.0 11.2 51 5.9 ESE 17 30 9 16 1021.6 1021.4 0.0
19/11:00am 21.4 19.0 11.4 53 5.6 E 15 24 8 13 1021.6 1021.4 0.0
19/10:30am 21.2 18.2 12.1 56 5.1 ESE 19 28 10 15 1021.5 1021.3 0.0
19/10:00am 20.5 17.1 11.2 55 5.1 SE 20 32 11 17 1021.4 1021.2 0.0
19/09:30am 20.3 17.1 11.2 56 5.0 ESE 19 26 10 14 1021.4 1021.2 0.0
19/09:00am 19.4 16.8 11.9 62 4.2 SE 17 26 9 14 1021.3 1021.1 0.0
19/08:30am 18.5 16.8 12.5 68 3.3 E 13 15 7 8 1021.2 1021.0 0.0
19/08:00am 17.2 16.1 12.1 72 2.8 E 9 11 5 6 1020.9 1020.7 0.0
19/07:30am 14.2 13.0 11.5 84 1.4 E 9 11 5 6 1020.6 1020.4 0.0
19/07:00am 12.0 9.7 10.6 91 0.7 E 13 13 7 7 1020.2 1020.0 0.0
19/06:30am 11.1 8.5 9.5 90 0.8 E 13 15 7 8 1019.9 1019.7 0.0
19/06:00am 10.7 8.0 9.0 89 0.8 ENE 13 13 7 7 1019.7 1019.5 0.0
19/05:30am 11.5 9.0 9.6 88 1.0 E 13 13 7 7 1019.5 1019.3 0.0
19/05:00am 11.8 9.3 9.7 87 1.1 E 13 13 7 7 1019.3 1019.1 0.0
19/04:30am 12.8 10.5 10.5 86 1.2 E 13 13 7 7 1019.3 1019.1 0.0
19/04:00am 12.8 10.8 10.0 83 1.4 E 11 13 6 7 1019.4 1019.2 0.0
19/03:30am 13.8 11.5 10.6 81 1.7 ESE 13 15 7 8 1019.5 1019.3 0.0
19/03:00am 13.6 11.3 10.6 82 1.6 SE 13 17 7 9 1019.5 1019.3 0.0
19/02:30am 14.0 11.7 10.4 79 1.9 SE 13 15 7 8 1019.6 1019.4 0.0
19/02:00am 15.0 12.9 11.0 77 2.1 SE 13 15 7 8 1019.7 1019.5 0.0
19/01:30am 16.0 14.0 11.6 75 2.4 SE 13 17 7 9 1019.9 1019.7 0.0
19/01:00am 17.0 14.0 12.1 73 2.7 SE 19 24 10 13 1019.9 1019.7 0.0
19/12:30am 15.7 13.8 11.7 77 2.2 SSE 13 13 7 7 1020.0 1019.8 0.0
19/12:00am 15.9 13.9 11.5 75 2.4 SSE 13 17 7 9 1020.1 1019.9 0.0
 
Date/Time
CDT
Temp
°C
App
Temp
°C
Dew
Point
Rel
Hum
%
Delta-T
°C
Wind Press
QNH
hPa
Press
MSL
hPa
Rain
since 9 am
mm
Dir
 
Spd
km/h
Gust
km/h
Spd
kts
Gust
kts
18/11:30pm 16.3 14.2 11.2 72 2.7 SSE 13 17 7 9 1020.0 1019.8 0.0
18/11:00pm 17.1 14.4 11.6 70 3.0 SSE 17 19 9 10 1019.8 1019.6 0.0
18/10:30pm 17.9 13.9 11.7 67 3.4 SSE 24 32 13 17 1019.6 1019.4 0.0
18/10:00pm 18.2 16.0 12.2 68 3.3 SSE 15 20 8 11 1019.4 1019.2 0.0
18/09:30pm 17.8 14.7 11.6 67 3.4 SSE 19 26 10 14 1019.2 1019.0 0.0
18/09:00pm 18.5 14.5 11.8 65 3.7 SSE 24 30 13 16 1019.0 1018.8 0.0
18/08:30pm 18.7 13.8 11.3 62 4.0 SSE 28 33 15 18 1018.9 1018.7 0.0
18/08:00pm 19.6 14.7 11.4 59 4.5 SSE 28 35 15 19 1018.7 1018.5 0.0
18/07:30pm 20.0 15.4 11.2 57 4.8 S 26 35 14 19 1018.4 1018.2 0.0
18/07:00pm 21.0 16.1 11.3 54 5.4 SSE 28 39 15 21 1017.9 1017.7 0.0
18/06:30pm 20.9 16.1 11.8 56 5.1 SSE 28 39 15 21 1017.7 1017.5 0.0
18/06:00pm 21.6 16.5 10.7 50 6.0 S 28 39 15 21 1017.4 1017.2 0.0
18/05:30pm 21.7 16.6 10.5 49 6.1 S 28 39 15 21 1017.4 1017.2 0.0
18/05:00pm 21.9 16.6 9.8 46 6.6 S 28 39 15 21 1017.4 1017.2 0.0
18/04:30pm 22.3 17.1 10.1 46 6.6 S 28 37 15 20 1017.5 1017.3 0.0
18/04:00pm 22.5 17.7 10.3 46 6.7 S 26 41 14 22 1017.2 1017.0 0.0
18/03:30pm 22.7 18.0 10.5 46 6.7 S 26 37 14 20 1017.0 1016.8 0.0
18/03:00pm 22.8 18.5 10.6 46 6.7 S 24 33 13 18 1017.1 1016.9 0.0
18/02:30pm 21.7 16.9 11.7 53 5.6 S 28 41 15 22 1017.0 1016.8 0.0
18/02:00pm 21.6 16.4 11.6 53 5.6 S 30 41 16 22 1017.1 1016.9 0.0
18/01:30pm 22.4 16.9 10.5 47 6.5 S 30 41 16 22 1017.0 1016.8 0.0
18/01:00pm 22.5 17.5 10.9 48 6.4 S 28 37 15 20 1017.1 1016.9 0.0
18/12:30pm 23.2 18.6 10.9 46 6.8 S 26 39 14 21 1017.0 1016.8 0.0
18/12:00pm 22.8 17.9 9.9 44 7.0 S 26 35 14 19 1016.8 1016.6 0.0
18/11:30am 21.9 17.2 9.4 45 6.7 S 24 33 13 18 1016.7 1016.5 0.0
18/11:00am 21.6 16.9 10.7 50 6.0 SSE 26 33 14 18 1016.5 1016.3 0.0
18/10:30am 21.2 17.1 11.5 54 5.4 S 24 35 13 19 1016.5 1016.3 0.0
18/10:00am 20.5 15.2 10.0 51 5.7 S 28 33 15 18 1016.3 1016.1 0.0
18/09:30am 20.9 17.2 12.8 60 4.6 S 24 32 13 17 1016.1 1015.9 0.0
18/09:00am 19.8 16.1 12.8 64 4.0 S 24 30 13 16 1015.6 1015.4 0.0
18/08:30am 19.4 15.7 12.7 65 3.8 S 24 32 13 17 1015.2 1015.0 0.0
18/08:00am 19.0 15.6 12.5 66 3.6 SSE 22 30 12 16 1014.8 1014.6 0.0
18/07:30am 17.7 15.3 12.8 73 2.7 S 17 22 9 12 1014.5 1014.3 0.0
18/07:00am 15.8 13.6 12.2 79 2.0 S 15 19 8 10 1014.1 1013.9 0.0
18/06:30am 15.7 13.1 12.1 79 2.0 S 17 20 9 11 1013.9 1013.7 0.0
18/06:00am 15.6 13.4 12.2 80 1.9 S 15 19 8 10 1013.4 1013.2 0.0
18/05:30am 15.1 12.9 12.2 83 1.6 S 15 17 8 9 1013.0 1012.8 0.0
18/05:00am 15.1 13.0 12.4 84 1.5 S 15 19 8 10 1012.5 1012.3 0.0
18/04:30am 15.3 13.3 12.6 84 1.5 S 15 17 8 9 1011.9 1011.7 0.0
18/04:00am 15.8 13.9 12.9 83 1.6 S 15 19 8 10 1011.9 1011.7 0.0
18/03:30am 15.9 14.0 13.0 83 1.6 SSE 15 17 8 9 1011.9 1011.7 0.0
18/03:00am 16.6 14.0 13.1 80 2.0 SSE 19 20 10 11 1011.9 1011.7 0.0
18/02:30am 17.3 14.6 13.4 78 2.2 SSE 20 28 11 15 1011.8 1011.6 0.0
18/02:00am 17.6 14.9 13.5 77 2.3 SSE 20 32 11 17 1011.7 1011.5 0.0
18/01:30am 17.3 14.8 13.4 78 2.2 SSE 19 26 10 14 1011.5 1011.3 0.0
18/01:00am 17.3 14.6 13.6 79 2.1 SSE 20 24 11 13 1011.2 1011.0 0.0
18/12:30am 16.9 14.4 13.4 80 2.0 SSE 19 24 10 13 1011.4 1011.2 0.0
18/12:00am 17.0 14.2 13.1 78 2.2 SE 20 24 11 13 1010.8 1010.6 0.0
 
Date/Time
CDT
Temp
°C
App
Temp
°C
Dew
Point
Rel
Hum
%
Delta-T
°C
Wind Press
QNH
hPa
Press
MSL
hPa
Rain
since 9 am
mm
Dir
 
Spd
km/h
Gust
km/h
Spd
kts
Gust
kts
17/11:30pm 17.2 14.3 12.9 76 2.4 SE 20 26 11 14 1010.4 1010.2 0.0
17/11:00pm 17.4 14.2 13.1 76 2.4 SE 22 28 12 15 1010.0 1009.8 0.0
17/10:30pm 17.6 13.3 13.1 75 2.5 SE 28 35 15 19 1009.3 1009.1 0.0
17/10:00pm 17.8 12.7 13.1 74 2.6 SE 32 37 17 20 1008.9 1008.6 0.0
17/09:30pm 18.0 12.6 12.9 72 2.9 SE 33 44 18 24 1008.7 1008.4 0.0
17/09:00pm 18.3 13.0 13.0 71 3.0 SE 33 41 18 22 1008.6 1008.3 0.0
17/08:30pm 18.9 13.7 12.9 68 3.4 SE 32 41 17 22 1008.4 1008.1 0.0
17/08:00pm 19.6 14.0 12.1 62 4.2 SE 33 41 18 22 1008.3 1008.0 0.0
17/07:30pm 20.5 15.0 11.7 57 4.9 SE 32 39 17 21 1008.5 1008.2 0.0
17/07:00pm 21.5 15.6 10.6 50 6.0 SE 32 39 17 21 1008.3 1008.0 0.0
17/06:30pm 21.7 14.9 9.3 45 6.7 SSE 35 48 19 26 1007.7 1007.4 0.0
17/06:00pm 23.5 16.1 6.7 34 8.7 SSE 35 43 19 23 1007.8 1007.5 0.0
17/05:30pm 24.5 17.0 6.3 31 9.4 SSE 35 43 19 23 1007.9 1007.6 0.0
17/05:00pm 25.4 18.1 5.6 28 10.1 SSE 33 41 18 22 1008.1 1007.8 0.0
17/04:30pm 27.2 20.1 3.7 22 11.8 SSE 30 37 16 20 1008.3 1008.0 0.0
17/04:00pm 27.9 21.6 3.6 21 12.2 SSE 26 35 14 19 1008.3 1008.0 0.0
17/03:30pm 27.6 20.6 4.0 22 11.9 S 30 39 16 21 1008.2 1007.9 0.0
17/03:00pm 27.8 21.1 5.4 24 11.6 S 30 39 16 21 1008.5 1008.2 0.0
17/02:30pm 28.6 22.0 6.1 24 11.9 S 30 37 16 20 1008.5 1008.2 0.0
17/02:00pm 28.4 24.7 4.6 22 12.2 SW 13 24 7 13 1008.9 1008.6 0.0
17/01:48pm 28.6 25.0 6.7 25 11.7 NW 15 39 8 21 1008.9 1008.6 0.0
17/01:30pm 27.0 23.8 5.3 25 11.2 WSW 11 19 6 10 1009.5 1009.3 0.0
17/01:00pm 26.6 23.1 5.5 26 10.9 WSW 13 26 7 14 1009.9 1009.7 0.0
17/12:30pm 26.1 23.8 5.7 27 10.5 N 7 11 4 6 1010.3 1010.1 0.0
17/12:00pm 25.1 23.0 6.8 31 9.6 ENE 7 19 4 10 1010.5 1010.3 0.0
17/11:30am 24.1 22.1 7.3 34 8.8 NNE 7 15 4 8 1010.9 1010.7 0.0
17/11:00am 21.8 19.1 7.2 39 7.5 E 11 19 6 10 1011.1 1010.9 0.0
17/10:30am 21.1 17.9 8.4 44 6.7 E 15 22 8 12 1011.4 1011.2 0.0
17/10:00am 19.8 16.6 8.5 48 5.9 E 15 20 8 11 1011.7 1011.5 0.0
17/09:30am 18.8 15.6 8.5 51 5.4 E 15 22 8 12 1011.8 1011.6 0.0
17/09:00am 18.3 14.9 9.1 55 4.8 ENE 17 20 9 11 1012.0 1011.8 0.0
17/08:30am 17.0 13.9 8.9 59 4.2 ENE 15 19 8 10 1012.1 1011.9 0.0
17/08:00am 15.4 13.1 9.1 66 3.2 NE 11 13 6 7 1012.1 1011.9 0.0
17/07:30am 11.5 10.1 8.7 83 1.4 NNE 6 9 3 5 1012.2 1012.0 0.0
17/07:00am 9.3 6.6 7.3 87 0.9 N 11 13 6 7 1012.3 1012.1 0.0
17/06:30am 9.1 7.0 6.7 85 1.1 N 7 9 4 5 1012.2 1012.0 0.0
17/06:00am 9.3 6.8 6.6 83 1.3 NNW 9 9 5 5 1012.1 1011.9 0.0
17/05:30am 10.2 7.8 7.1 81 1.5 NNW 9 11 5 6 1012.0 1011.8 0.0
17/05:00am 10.6 8.2 7.1 79 1.7 N 9 9 5 5 1012.0 1011.8 0.0
17/04:30am 11.0 8.8 7.7 80 1.6 NNE 9 9 5 5 1011.8 1011.6 0.0
17/04:00am 10.4 7.8 6.2 75 2.0 NE 9 13 5 7 1011.8 1011.6 0.0
17/03:30am 12.4 10.4 8.7 78 1.9 ESE 9 11 5 6 1011.9 1011.7 0.0
17/03:00am 12.4 10.7 8.3 76 2.0 SE 7 9 4 5 1012.1 1011.9 0.0
17/02:30am 12.5 10.3 7.8 73 2.3 SE 9 9 5 5 1012.1 1011.9 0.0
17/02:00am 13.4 11.0 8.7 73 2.4 SSE 11 11 6 6 1012.1 1011.9 0.0
17/01:30am 12.8 10.6 7.9 72 2.4 SE 9 11 5 6 1012.4 1012.2 0.0
17/01:00am 13.1 10.9 8.0 71 2.5 SE 9 11 5 6 1012.5 1012.3 0.0
17/12:30am 13.9 11.0 8.3 69 2.8 SSE 13 15 7 8 1012.6 1012.4 0.0
17/12:00am 14.4 11.6 8.4 67 3.0 SSE 13 15 7 8 1012.6 1012.4 0.0
 
Date/Time
CDT
Temp
°C
App
Temp
°C
Dew
Point
Rel
Hum
%
Delta-T
°C
Wind Press
QNH
hPa
Press
MSL
hPa
Rain
since 9 am
mm
Dir
 
Spd
km/h
Gust
km/h
Spd
kts
Gust
kts
16/11:30pm 15.0 12.2 8.5 65 3.3 SSE 13 13 7 7 1013.0 1012.8 0.0
16/11:00pm 16.1 13.0 8.8 62 3.7 SSE 15 17 8 9 1013.0 1012.8 0.0
16/10:30pm 17.5 13.6 9.4 59 4.2 SSE 20 28 11 15 1013.0 1012.8 0.0
16/10:00pm 17.1 14.0 9.0 59 4.2 S 15 20 8 11 1013.0 1012.8 0.0
16/09:30pm 17.4 13.5 8.5 56 4.6 S 19 22 10 12 1013.0 1012.8 0.0
16/09:00pm 18.0 14.0 9.1 56 4.7 S 20 28 11 15 1013.0 1012.8 0.0
16/08:30pm 18.3 14.1 9.6 57 4.6 S 22 30 12 16 1012.8 1012.6 0.0
16/08:00pm 18.7 14.2 10.0 57 4.6 S 24 32 13 17 1012.6 1012.4 0.0
16/07:30pm 19.2 14.7 10.2 56 4.8 S 24 33 13 18 1012.4 1012.2 0.0
16/07:00pm 20.0 15.2 10.4 54 5.2 S 26 37 14 20 1012.1 1011.9 0.0
16/06:30pm 20.3 15.1 10.1 52 5.5 S 28 37 15 20 1011.8 1011.6 0.0
16/06:00pm 21.3 16.0 9.9 48 6.2 SSW 28 39 15 21 1011.8 1011.6 0.0
16/05:30pm 21.5 16.5 9.4 46 6.5 SSW 26 35 14 19 1011.7 1011.5 0.0
16/05:00pm 21.5 16.2 10.0 48 6.2 S 28 37 15 20 1011.6 1011.4 0.0
16/04:30pm 22.0 16.7 9.9 46 6.6 SSW 28 41 15 22 1011.6 1011.4 0.0
16/04:00pm 21.6 15.8 9.5 46 6.5 SSW 30 43 16 23 1011.7 1011.5 0.0
16/03:30pm 23.4 17.6 9.4 41 7.6 S 30 43 16 23 1011.6 1011.4 0.0
16/03:00pm 22.5 16.6 10.3 46 6.7 SSW 32 44 17 24 1011.6 1011.4 0.0
16/02:30pm 22.7 16.3 8.4 40 7.6 SSW 32 43 17 23 1011.6 1011.4 0.0
16/02:14pm 21.9 16.1 9.4 45 6.7 SSW 30 48 16 26 1011.7 1011.5 0.0
16/02:00pm 22.4 16.5 10.5 47 6.5 SSW 32 43 17 23 1011.7 1011.5 0.0
16/01:30pm 22.4 16.8 10.2 46 6.7 SSW 30 43 16 23 1011.7 1011.5 0.0
16/01:00pm 23.7 18.1 10.0 42 7.5 SSW 30 44 16 24 1011.7 1011.5 0.0

Other Formats:

Comma delimited format used in spreadsheet applications
http://www.bom.gov.au/fwo/IDS60801/IDS60801.94651.axf

JavaScript Object Notation format (JSON) in row-major order
http://www.bom.gov.au/fwo/IDS60801/IDS60801.94651.json